Hlavní strana
METAR-TAF:

METAR-TAF

Letiště :

Melilla, Španělsko

zeměpisná šířka: 35-17N, zeměpisná délka: 002-57W, výška: 47 m

Aktuální stav počasí

Zpráva byla vytvořena před 11 minutami, v 23:00 UTC
Východní vítr 8 kt, proměnlivý mezi východoseverovýchodním a jihovýchodním
Teplota 15°C
Vlhkost vzduchu 88%
Tlak 1029 hPa
Viditelnost 10 km a více
Skoro jasno ve výšce 1100 ft
Zataženo ve výšce 1700 ft

METAR: GEML 242300Z AUTO 10008KT 070V140 9999 FEW011 OVC017 15/13 Q1029

Čas: 00:11 (23:11 UTC)

Předpověď počasí

Zpráva byla vytvořena před 3 hodinami a 11 minutami, v 20:00 UTC
Předpověď platná od 24 v 21 UTC do 25 v 21 UTC
Východoseverovýchodní vítr 8 kt
Viditelnost 10 km a více
Polojasno ve výšce 1500 ft
Polojasno ve výšce 2500 ft
Pravděpodobnost 40% :
Dočasný
od 24 v 21 UTC do 25 v 06 UTC
Oblačno až skoro zataženo ve výšce 1400 ft

TAF: GEML 242000Z 2421/2521 07008KT 9999 SCT015 SCT025 TX19/2515Z TN14/2503Z PROB40 TEMPO 2421/2506 BKN014

Stav a předpovědi počasí z více než 4 000 letišť (zprávy METAR a TAF).

Červené a žluté tečky na mapě představují dostupné meteorologické stanice.

Když kurzor umístíte na tečku, zobrazí se název stanice.

Pak kliknutím zobrazíte stav a předpověď počasí.

Chcete-li změnit mapu, kliknutím na zelené tlačítko se znaménkem +mapu přiblížíte, kliknutím na zelené tlačítko se znaménkem – mapu oddálíte a kliknutím na zelené šipky přejdete na sousední mapy.


METAR-TAF: